ADDS METAR Data INFO
IDs: Format: Raw Decoded Include TAF

Data at: 1324 UTC 19 Jul 2018

KMLP 191253Z AUTO 21004KT 10SM CLR 15/02 A3020 RMK AO2 SLP128 T01500022
KMLP 191153Z AUTO 22005KT 10SM CLR 15/02 A3021 RMK AO2 SLP127 T01500017 10167 20150 55001
KMLP 191053Z AUTO 22004KT 10SM CLR 16/02 A3021 RMK AO2 SLP126 T01560017
KMLP 190953Z AUTO VRB03KT 10SM CLR 16/02 A3021 RMK AO2 SLP127 T01560017
KMLP 190853Z AUTO VRB03KT 10SM CLR 16/01 A3021 RMK AO2 SLP127 T01610006 58001
KMLP 190753Z AUTO 23005KT 10SM CLR 16/00 A3021 RMK AO2 SLP129 T01610000 402220144
KMLP 190653Z AUTO 24006KT 10SM CLR 17/00 A3022 RMK AO2 SLP130 T01670000
KMLP 190553Z AUTO 25004KT 10SM CLR 17/M01 A3022 RMK AO2 SLP130 T01671006 10211 20161 50002
KMLP 190453Z AUTO VRB04KT 10SM CLR 17/M01 A3023 RMK AO2 SLP138 T01671011
KMLP 190353Z AUTO VRB04KT 10SM CLR 17/M01 A3021 RMK AO2 SLP133 T01671006
KMLP 190253Z AUTO 26004KT 10SM CLR 18/02 A3021 RMK AO2 SLP131 T01780017 58003
KMLP 190153Z AUTO VRB04KT 10SM CLR 19/02 A3021 RMK AO2 SLP132 T01890017
KMLP 190053Z AUTO VRB03KT 10SM CLR 21/02 A3022 RMK AO2 SLP133 T02060022
KMLP 182353Z AUTO VRB05KT 10SM CLR 21/01 A3022 RMK AO2 SLP131 T02110011 10222 20189 57002
KMLP 182253Z AUTO VRB05KT 10SM CLR 21/02 A3022 RMK AO2 SLP131 T02110017
KMLP 182153Z AUTO VRB06KT 10SM CLR 21/02 A3022 RMK AO2 SLP128 T02110017
KMLP 182053Z AUTO 10SM CLR 21/02 A3023 RMK AO2 SLP128 T02110022 51001
KMLP 181953Z AUTO VRB05KT 10SM CLR 20/02 A3023 RMK AO2 SLP128 T02000022
KMLP 181853Z AUTO 24007KT 10SM CLR 19/03 A3023 RMK AO2 SLP128 T01940028
KMLP 181753Z AUTO VRB03KT 10SM CLR 20/03 A3022 RMK AO2 SLP125 T02000028 10200 20144 51006
KMLP 181653Z AUTO VRB06KT 10SM CLR 18/02 A3022 RMK AO2 SLP126 T01780017
KMLP 181553Z AUTO VRB04KT 10SM CLR 17/03 A3021 RMK AO2 SLP127 T01720033
KMLP 181453Z AUTO 00000KT 10SM CLR 16/03 A3020 RMK AO2 SLP123 T01610033 53006
KMLP 181353Z AUTO VRB03KT 10SM CLR 15/02 A3019 RMK AO2 SLP120 T01500017
KMLP 181253Z AUTO VRB05KT 10SM CLR 14/00 A3018 RMK AO2 SLP114 T01440000
KMLP 181153Z AUTO VRB03KT 10SM CLR 16/M03 A3018 RMK AO2 SLP109 T01561033 10206 20156 56003
KMLP 181053Z AUTO 24004KT 10SM CLR 17/M04 A3018 RMK AO2 SLP106 T01671044
KMLP 180953Z AUTO VRB05KT 10SM CLR 18/M03 A3018 RMK AO2 SLP109 T01781033
KMLP 180853Z AUTO 23006KT 10SM CLR 18/M02 A3019 RMK AO2 SLP109 T01831017 56005
KMLP 180753Z AUTO 21006KT 10SM CLR 19/00 A3019 RMK AO2 SLP108 T01940000 402610172
KMLP 180653Z AUTO 21005KT 10SM CLR 20/M01 A3020 RMK AO2 SLP112 T02001006
KMLP 180553Z AUTO 21005KT 10SM CLR 21/M01 A3021 RMK AO2 SLP114 T02061011 10256 20200 58003
KMLP 180453Z AUTO 23005KT 10SM CLR 21/01 A3022 RMK AO2 SLP121 T02060006
KMLP 180353Z AUTO 26004KT 10SM CLR 21/01 A3022 RMK AO2 SLP122 T02060011
KMLP 180253Z AUTO 23004KT 10SM CLR 22/02 A3022 RMK AO2 SLP124 T02170022 56002
KMLP 180153Z AUTO VRB03KT 10SM CLR 23/02 A3022 RMK AO2 SLP122 T02280022